createdAt,value
2019-03-17T00:01:12.102Z,7.70
2019-03-17T00:03:51.816Z,7.70
2019-03-17T00:05:57.134Z,7.80
2019-03-17T00:08:05.650Z,7.80
2019-03-17T00:10:10.636Z,7.80
2019-03-17T00:12:15.953Z,7.80
2019-03-17T00:14:43.710Z,7.80
2019-03-17T00:16:51.745Z,7.80
2019-03-17T00:18:57.072Z,7.80
2019-03-17T00:21:02.388Z,7.80
2019-03-17T00:23:07.704Z,7.80
2019-03-17T00:25:13.020Z,7.80
2019-03-17T00:27:18.348Z,7.70
2019-03-17T00:29:31.566Z,7.80
2019-03-17T00:31:37.055Z,7.80
2019-03-17T00:36:10.742Z,7.70
2019-03-17T00:38:29.515Z,7.70
2019-03-17T00:40:34.831Z,7.70
2019-03-17T00:42:40.159Z,7.60
2019-03-17T00:44:45.583Z,7.60
2019-03-17T00:46:50.863Z,7.60
2019-03-17T00:48:56.193Z,7.60
2019-03-17T00:51:04.502Z,7.60
2019-03-17T00:53:09.822Z,7.60
2019-03-17T00:55:15.164Z,7.60
2019-03-17T00:57:23.365Z,7.60
2019-03-17T00:59:30.289Z,7.60
2019-03-17T01:01:38.325Z,7.60
2019-03-17T01:03:43.716Z,7.60
2019-03-17T01:05:49.032Z,7.60
2019-03-17T01:07:54.364Z,7.60
2019-03-17T01:09:59.707Z,7.60
2019-03-17T01:12:05.033Z,7.60
2019-03-17T01:14:10.353Z,7.70
2019-03-17T01:16:15.708Z,7.70
2019-03-17T01:18:21.021Z,7.70
2019-03-17T01:20:26.836Z,7.70
2019-03-17T01:22:32.184Z,7.60
2019-03-17T01:24:37.504Z,7.60
2019-03-17T01:26:42.829Z,7.60
2019-03-17T01:28:48.195Z,7.60
2019-03-17T01:30:53.489Z,7.60
2019-03-17T01:32:58.804Z,7.60
2019-03-17T01:35:09.701Z,7.60
2019-03-17T01:37:12.920Z,7.60
2019-03-17T01:39:18.243Z,7.60
2019-03-17T01:41:23.592Z,7.70
2019-03-17T01:43:28.908Z,7.70
2019-03-17T01:45:34.220Z,7.70
2019-03-17T01:47:39.547Z,7.70
2019-03-17T01:49:44.864Z,7.60
2019-03-17T01:51:50.187Z,7.70
2019-03-17T01:53:55.508Z,7.70
2019-03-17T01:56:00.821Z,7.60
2019-03-17T01:58:06.135Z,7.60
2019-03-17T02:00:13.233Z,7.60
2019-03-17T02:02:18.543Z,7.60
2019-03-17T02:04:23.868Z,7.60
2019-03-17T02:06:30.271Z,7.60
2019-03-17T02:08:36.560Z,7.50
2019-03-17T02:10:41.872Z,7.50
2019-03-17T02:12:47.200Z,7.40
2019-03-17T02:14:52.520Z,7.50
2019-03-17T02:16:57.840Z,7.50
2019-03-17T02:19:04.248Z,7.50
2019-03-17T02:21:09.556Z,7.60
2019-03-17T02:23:15.849Z,7.60
2019-03-17T02:25:21.192Z,7.70
2019-03-17T02:27:26.511Z,7.70
2019-03-17T02:29:31.828Z,7.70
2019-03-17T02:31:37.158Z,7.70
2019-03-17T02:33:42.486Z,7.80
2019-03-17T02:35:47.792Z,7.70
2019-03-17T02:37:53.124Z,7.70
2019-03-17T02:39:58.441Z,7.70
2019-03-17T02:42:03.761Z,7.70
2019-03-17T02:44:09.083Z,7.80
2019-03-17T02:46:14.400Z,7.80
2019-03-17T02:48:19.724Z,7.80
2019-03-17T02:50:25.041Z,7.80
2019-03-17T02:52:30.359Z,7.80
2019-03-17T02:54:35.669Z,7.80
2019-03-17T02:56:41.009Z,7.80
2019-03-17T02:58:46.316Z,7.80
2019-03-17T03:00:51.639Z,7.80
2019-03-17T03:02:57.032Z,7.80
2019-03-17T03:05:02.348Z,7.80
2019-03-17T03:07:07.741Z,7.80
2019-03-17T03:09:13.063Z,7.80
2019-03-17T03:11:18.376Z,7.70
2019-03-17T03:13:23.714Z,7.70
2019-03-17T03:15:29.037Z,7.70
2019-03-17T03:17:35.308Z,7.60
2019-03-17T03:19:40.620Z,7.60
2019-03-17T03:21:45.955Z,7.50
2019-03-17T03:23:51.296Z,7.50
2019-03-17T03:25:56.613Z,7.50
2019-03-17T03:28:01.974Z,7.50
2019-03-17T03:30:10.050Z,7.40
2019-03-17T03:32:15.314Z,7.40
2019-03-17T03:34:20.620Z,7.40
2019-03-17T03:36:25.982Z,7.40
2019-03-17T03:38:31.310Z,7.40
2019-03-17T03:40:36.630Z,7.40
2019-03-17T03:42:42.107Z,7.40
2019-03-17T03:44:47.347Z,7.40
2019-03-17T03:46:52.662Z,7.30
2019-03-17T03:48:57.991Z,7.30
2019-03-17T03:51:03.309Z,7.30
2019-03-17T03:53:09.684Z,7.30
2019-03-17T03:55:15.041Z,7.30
2019-03-17T03:57:20.356Z,7.30
2019-03-17T03:59:25.701Z,7.30
2019-03-17T04:01:31.009Z,7.20
2019-03-17T04:03:36.321Z,7.20
2019-03-17T04:05:41.640Z,7.30
2019-03-17T04:07:46.961Z,7.30
2019-03-17T04:09:52.289Z,7.20
2019-03-17T04:11:57.603Z,7.30
2019-03-17T04:14:02.935Z,7.20
2019-03-17T04:16:08.256Z,7.20
2019-03-17T04:18:13.582Z,7.20
2019-03-17T04:20:18.923Z,7.20
2019-03-17T04:22:24.236Z,7.10
2019-03-17T04:24:30.530Z,7.10
2019-03-17T04:26:35.852Z,7.00
2019-03-17T04:28:41.168Z,7.00
2019-03-17T04:30:46.596Z,7.00
2019-03-17T04:32:51.912Z,7.00
2019-03-17T04:34:57.228Z,7.00
2019-03-17T04:37:02.570Z,7.00
2019-03-17T04:39:07.887Z,7.00
2019-03-17T04:41:13.225Z,7.00
2019-03-17T04:43:18.536Z,6.90
2019-03-17T04:45:23.852Z,7.00
2019-03-17T04:47:30.144Z,7.00
2019-03-17T04:49:35.461Z,6.90
2019-03-17T04:51:40.782Z,6.90
2019-03-17T04:53:46.119Z,6.90
2019-03-17T04:55:51.437Z,6.90
2019-03-17T04:57:56.751Z,6.90
2019-03-17T05:00:02.245Z,6.90
2019-03-17T05:02:07.762Z,6.90
2019-03-17T05:04:13.072Z,6.80
2019-03-17T05:06:18.421Z,6.80
2019-03-17T05:08:23.728Z,6.80
2019-03-17T05:10:29.048Z,6.70
2019-03-17T05:12:34.371Z,6.80
2019-03-17T05:14:39.685Z,6.80
2019-03-17T05:16:44.999Z,6.80
2019-03-17T05:18:50.328Z,6.80
2019-03-17T05:20:55.653Z,6.80
2019-03-17T05:23:00.966Z,6.80
2019-03-17T05:25:06.942Z,6.80
2019-03-17T05:27:12.249Z,6.80
2019-03-17T05:29:17.568Z,6.90
2019-03-17T05:31:22.904Z,7.00
2019-03-17T05:33:28.211Z,7.00
2019-03-17T05:35:33.532Z,7.00
2019-03-17T05:37:39.204Z,7.00
2019-03-17T05:39:44.524Z,7.00
2019-03-17T05:41:49.852Z,7.10
2019-03-17T05:43:55.204Z,7.10
2019-03-17T05:46:00.524Z,7.10
2019-03-17T05:48:05.840Z,7.20
2019-03-17T05:50:11.192Z,7.20
2019-03-17T05:52:16.508Z,7.20
2019-03-17T05:54:21.829Z,7.20
2019-03-17T05:56:27.156Z,7.30
2019-03-17T05:58:32.464Z,7.40
2019-03-17T06:00:37.801Z,7.40
2019-03-17T06:02:43.136Z,7.40
2019-03-17T06:04:48.448Z,7.50
2019-03-17T06:06:53.767Z,7.50
2019-03-17T06:08:59.091Z,7.60
2019-03-17T06:11:04.675Z,7.60
2019-03-17T06:13:09.993Z,7.70
2019-03-17T06:15:15.320Z,7.80
2019-03-17T06:17:20.639Z,7.90
2019-03-17T06:19:25.951Z,7.90
2019-03-17T06:21:31.287Z,8.00
2019-03-17T06:23:36.593Z,8.20
2019-03-17T06:25:41.911Z,8.40
2019-03-17T06:27:47.363Z,8.70
2019-03-17T06:29:52.684Z,8.80
2019-03-17T06:31:57.999Z,9.00
2019-03-17T06:34:03.331Z,9.30
2019-03-17T06:36:08.663Z,9.70
2019-03-17T06:38:13.980Z,10.00
2019-03-17T06:40:19.312Z,10.30
2019-03-17T06:42:24.725Z,10.80
2019-03-17T06:44:30.047Z,11.20
2019-03-17T06:46:35.471Z,11.20
2019-03-17T06:48:40.804Z,11.60
2019-03-17T06:50:47.098Z,11.90
2019-03-17T06:52:53.657Z,12.00
2019-03-17T06:54:59.084Z,12.00
2019-03-17T06:57:04.412Z,12.00
2019-03-17T06:59:09.786Z,12.10
2019-03-17T07:01:15.060Z,12.10
2019-03-17T07:03:20.384Z,11.80
2019-03-17T07:05:25.727Z,11.50
2019-03-17T07:07:42.931Z,11.30
2019-03-17T07:09:37.996Z,11.40
2019-03-17T07:11:43.328Z,11.70
2019-03-17T07:13:48.656Z,11.90
2019-03-17T07:15:53.979Z,11.60
2019-03-17T07:17:59.344Z,11.90
2019-03-17T07:20:10.307Z,11.70
2019-03-17T07:22:15.632Z,11.50
2019-03-17T07:24:20.968Z,11.60
2019-03-17T07:26:26.295Z,11.50
2019-03-17T07:28:31.619Z,11.70
2019-03-17T07:30:36.974Z,11.90
2019-03-17T07:32:42.297Z,12.10
2019-03-17T07:34:47.620Z,12.20
2019-03-17T07:36:52.943Z,12.40
2019-03-17T07:39:10.870Z,12.40
2019-03-17T07:41:05.246Z,12.30
2019-03-17T07:43:10.559Z,12.00
2019-03-17T07:45:15.891Z,11.90
2019-03-17T07:47:21.208Z,11.80
2019-03-17T07:49:26.528Z,12.30
2019-03-17T07:51:31.869Z,12.60
2019-03-17T07:53:37.192Z,12.50
2019-03-17T07:55:42.516Z,12.90
2019-03-17T07:57:47.849Z,13.10
2019-03-17T07:59:53.168Z,13.00
2019-03-17T08:01:58.487Z,13.20
2019-03-17T08:04:03.811Z,13.20
2019-03-17T08:06:09.138Z,13.50
2019-03-17T08:08:14.451Z,13.50
2019-03-17T08:10:19.791Z,13.60
2019-03-17T08:12:25.114Z,13.90
2019-03-17T08:14:30.428Z,14.00
2019-03-17T08:16:35.839Z,14.10
2019-03-17T08:18:41.144Z,14.10
2019-03-17T08:20:46.467Z,14.20
2019-03-17T08:22:51.783Z,14.40
2019-03-17T08:24:57.112Z,14.50
2019-03-17T08:27:02.429Z,14.40
2019-03-17T08:29:07.826Z,14.60
2019-03-17T08:31:13.143Z,14.50
2019-03-17T08:33:18.469Z,14.30
2019-03-17T08:35:23.806Z,14.60
2019-03-17T08:37:29.118Z,14.30
2019-03-17T08:39:34.439Z,14.30
2019-03-17T08:41:39.761Z,14.40
2019-03-17T08:43:54.276Z,14.50
2019-03-17T08:45:52.048Z,15.00
2019-03-17T08:47:58.769Z,15.00
2019-03-17T08:50:06.300Z,15.30
2019-03-17T08:52:11.604Z,15.10
2019-03-17T08:54:16.993Z,15.00
2019-03-17T08:56:22.312Z,14.90
2019-03-17T08:58:27.637Z,14.60
2019-03-17T09:00:32.966Z,14.70
2019-03-17T09:02:38.281Z,15.00
2019-03-17T09:04:44.579Z,15.50
2019-03-17T09:06:50.882Z,15.90
2019-03-17T09:08:56.230Z,16.30
2019-03-17T09:11:01.520Z,15.90
2019-03-17T09:13:06.848Z,15.80
2019-03-17T09:15:12.161Z,15.70
2019-03-17T09:17:17.642Z,16.00
2019-03-17T09:19:22.986Z,16.00
2019-03-17T09:21:28.310Z,15.90
2019-03-17T09:23:33.629Z,16.00
2019-03-17T09:25:38.947Z,16.00
2019-03-17T09:27:44.275Z,16.20
2019-03-17T09:29:49.593Z,16.60
2019-03-17T09:31:54.899Z,16.60
2019-03-17T09:34:00.246Z,17.00
2019-03-17T09:36:05.559Z,17.20
2019-03-17T09:38:10.980Z,17.40
2019-03-17T09:40:17.360Z,17.60
2019-03-17T09:42:22.687Z,17.60
2019-03-17T09:44:28.007Z,17.80
2019-03-17T09:46:37.601Z,17.90
2019-03-17T09:48:42.915Z,17.80
2019-03-17T09:50:48.291Z,17.50
2019-03-17T09:52:53.592Z,17.60
2019-03-17T09:54:58.908Z,17.90
2019-03-17T09:57:04.240Z,18.00
2019-03-17T09:59:09.552Z,18.20
2019-03-17T10:01:14.864Z,17.60
2019-03-17T10:03:20.288Z,17.70
2019-03-17T10:05:25.611Z,17.60
2019-03-17T10:07:30.922Z,17.80
2019-03-17T10:09:36.231Z,17.80
2019-03-17T10:11:41.545Z,18.00
2019-03-17T10:13:46.856Z,17.70
2019-03-17T10:15:52.164Z,17.80
2019-03-17T10:17:57.468Z,17.90
2019-03-17T10:20:02.780Z,17.70
2019-03-17T10:22:08.104Z,17.40
2019-03-17T10:24:13.411Z,17.60
2019-03-17T10:26:18.727Z,17.60
2019-03-17T10:28:24.052Z,17.50
2019-03-17T10:30:29.360Z,17.60
2019-03-17T10:32:34.671Z,17.60
2019-03-17T10:34:40.005Z,17.30
2019-03-17T10:36:45.308Z,17.60
2019-03-17T10:38:50.619Z,18.10
2019-03-17T10:40:55.960Z,18.20
2019-03-17T10:43:01.267Z,18.20
2019-03-17T10:45:08.743Z,18.20
2019-03-17T10:47:14.058Z,18.50
2019-03-17T10:49:19.367Z,18.80
2019-03-17T10:51:24.716Z,19.10
2019-03-17T10:53:30.021Z,19.20
2019-03-17T10:55:35.335Z,18.80
2019-03-17T10:57:40.745Z,19.00
2019-03-17T10:59:46.053Z,19.30
2019-03-17T11:01:51.364Z,19.70
2019-03-17T11:03:56.687Z,19.90
2019-03-17T11:06:01.996Z,19.80
2019-03-17T11:08:07.311Z,19.40
2019-03-17T11:10:14.820Z,18.90
2019-03-17T11:12:20.137Z,19.10
2019-03-17T11:14:25.452Z,19.30
2019-03-17T11:16:30.768Z,19.40
2019-03-17T11:18:36.077Z,19.30
2019-03-17T11:20:41.385Z,19.00
2019-03-17T11:22:47.604Z,18.90
2019-03-17T11:24:53.457Z,18.70
2019-03-17T11:26:58.762Z,18.50
2019-03-17T11:29:04.100Z,18.40
2019-03-17T11:31:09.408Z,18.40
2019-03-17T11:33:14.723Z,18.40
2019-03-17T11:35:20.039Z,18.40
2019-03-17T11:37:25.352Z,18.40
2019-03-17T11:39:37.867Z,18.50
2019-03-17T11:41:37.605Z,18.60
2019-03-17T11:43:42.923Z,18.60
2019-03-17T11:45:48.229Z,18.60
2019-03-17T11:47:53.553Z,18.50
2019-03-17T11:49:58.869Z,18.50
2019-03-17T11:52:04.175Z,18.40
2019-03-17T11:54:09.508Z,18.40
2019-03-17T11:56:14.816Z,18.80
2019-03-17T11:58:20.137Z,18.90
2019-03-17T12:00:25.461Z,19.00
2019-03-17T12:02:30.774Z,19.10
2019-03-17T12:04:36.089Z,19.00
2019-03-17T12:06:41.400Z,19.00
2019-03-17T12:08:46.825Z,19.20
2019-03-17T12:10:52.184Z,19.30
2019-03-17T12:12:57.547Z,19.30
2019-03-17T12:15:02.989Z,19.10
2019-03-17T12:17:08.356Z,18.90
2019-03-17T12:19:13.709Z,18.90
2019-03-17T12:21:19.049Z,18.90
2019-03-17T12:23:24.416Z,19.00
2019-03-17T12:25:29.728Z,19.10
2019-03-17T12:27:35.036Z,19.10
2019-03-17T12:29:40.348Z,19.30
2019-03-17T12:31:45.664Z,19.50
2019-03-17T12:33:50.971Z,19.70
2019-03-17T12:35:56.284Z,19.60
2019-03-17T12:38:01.854Z,19.50
2019-03-17T12:40:07.522Z,19.60
2019-03-17T12:42:15.583Z,19.70
2019-03-17T12:44:20.946Z,19.70
2019-03-17T12:46:26.319Z,19.60
2019-03-17T12:48:31.640Z,19.40
2019-03-17T12:50:37.037Z,19.60
2019-03-17T12:52:44.179Z,19.70
2019-03-17T12:54:49.533Z,19.80
2019-03-17T12:56:54.919Z,19.70
2019-03-17T12:59:00.317Z,19.90
2019-03-17T13:01:05.683Z,19.80
2019-03-17T13:03:11.072Z,19.60
2019-03-17T13:05:16.428Z,19.70
2019-03-17T13:07:21.788Z,19.80
2019-03-17T13:09:27.182Z,19.90
2019-03-17T13:11:32.529Z,20.00
2019-03-17T13:13:38.080Z,19.90
2019-03-17T13:15:43.537Z,19.80
2019-03-17T13:17:48.900Z,19.80
2019-03-17T13:19:54.249Z,19.70
2019-03-17T13:21:59.625Z,19.60
2019-03-17T13:24:04.985Z,19.50
2019-03-17T13:26:10.524Z,19.60
2019-03-17T13:28:15.851Z,19.60
2019-03-17T13:30:21.192Z,19.60
2019-03-17T13:32:26.584Z,19.60
2019-03-17T13:34:31.949Z,19.60
2019-03-17T13:36:37.316Z,19.50
2019-03-17T13:38:42.702Z,19.30
2019-03-17T13:40:53.878Z,19.30
2019-03-17T13:42:59.420Z,19.20
2019-03-17T13:45:06.772Z,19.20
2019-03-17T13:47:13.121Z,19.10
2019-03-17T13:49:18.521Z,19.00
2019-03-17T13:51:23.844Z,19.00
2019-03-17T13:53:29.186Z,18.90
2019-03-17T13:55:34.528Z,18.90
2019-03-17T13:57:41.500Z,18.90
2019-03-17T13:59:46.827Z,18.80
2019-03-17T14:01:52.180Z,18.70
2019-03-17T14:03:57.489Z,18.70
2019-03-17T14:06:02.809Z,18.70
2019-03-17T14:08:08.138Z,18.70
2019-03-17T14:10:15.948Z,18.70
2019-03-17T14:12:21.261Z,18.70
2019-03-17T14:14:26.607Z,18.70
2019-03-17T14:16:31.919Z,18.70
2019-03-17T14:18:37.235Z,18.80
2019-03-17T14:20:42.581Z,18.80
2019-03-17T14:22:47.891Z,18.70
2019-03-17T14:24:53.217Z,18.70
2019-03-17T14:26:58.551Z,18.70
2019-03-17T14:29:03.856Z,18.70
2019-03-17T14:31:09.173Z,18.70
2019-03-17T14:33:14.512Z,18.70
2019-03-17T14:35:21.452Z,18.70
2019-03-17T14:37:26.747Z,18.70
2019-03-17T14:39:32.078Z,18.70
2019-03-17T14:41:37.393Z,18.80
2019-03-17T14:43:42.710Z,18.80
2019-03-17T14:45:48.036Z,18.80
2019-03-17T14:47:53.344Z,18.90
2019-03-17T14:49:58.664Z,19.00
2019-03-17T14:52:04.075Z,19.00
2019-03-17T14:54:09.381Z,19.00
2019-03-17T14:56:15.656Z,19.10
2019-03-17T14:58:20.990Z,19.10
2019-03-17T15:00:26.330Z,19.10
2019-03-17T15:02:31.640Z,19.20
2019-03-17T15:04:36.975Z,19.10
2019-03-17T15:06:42.291Z,19.00
2019-03-17T15:08:48.580Z,18.90
2019-03-17T15:11:05.262Z,18.90
2019-03-17T15:13:00.856Z,18.80
2019-03-17T15:15:12.150Z,18.80
2019-03-17T15:17:17.480Z,18.80
2019-03-17T15:19:22.787Z,18.70
2019-03-17T15:21:28.150Z,18.80
2019-03-17T15:23:33.538Z,18.70
2019-03-17T15:25:38.861Z,18.70
2019-03-17T15:27:44.177Z,18.80
2019-03-17T15:29:49.489Z,18.70
2019-03-17T15:31:54.795Z,18.80
2019-03-17T15:34:00.112Z,18.70
2019-03-17T15:36:05.435Z,18.70
2019-03-17T15:38:10.743Z,18.70
2019-03-17T15:40:21.092Z,18.80
2019-03-17T15:42:26.518Z,18.80
2019-03-17T15:44:31.831Z,18.80
2019-03-17T15:46:37.142Z,18.80
2019-03-17T15:48:42.461Z,18.80
2019-03-17T15:50:47.776Z,18.80
2019-03-17T15:52:53.099Z,18.80
2019-03-17T15:54:58.421Z,18.70
2019-03-17T15:57:03.745Z,18.70
2019-03-17T15:59:09.519Z,18.70
2019-03-17T16:01:16.519Z,18.60
2019-03-17T16:03:21.947Z,18.60
2019-03-17T16:05:27.311Z,18.60
2019-03-17T16:07:42.088Z,18.50
2019-03-17T16:12:17.130Z,18.40
2019-03-17T16:14:24.922Z,18.40
2019-03-17T16:16:30.262Z,18.30
2019-03-17T16:18:35.877Z,18.30
2019-03-17T16:20:42.369Z,18.30
2019-03-17T16:22:50.760Z,18.10
2019-03-17T16:25:03.761Z,18.20
2019-03-17T16:29:50.760Z,18.10
2019-03-17T16:31:57.740Z,17.90
2019-03-17T16:34:03.526Z,17.80
2019-03-17T16:38:29.597Z,17.70
2019-03-17T16:40:36.519Z,17.70
2019-03-17T16:42:41.989Z,17.60
2019-03-17T16:44:47.537Z,17.50
2019-03-17T16:46:52.868Z,17.50
2019-03-17T16:48:58.227Z,17.40
2019-03-17T16:51:03.751Z,17.40
2019-03-17T17:08:21.774Z,16.80
2019-03-17T17:10:29.420Z,16.80
2019-03-17T17:12:36.492Z,16.70
2019-03-17T17:14:41.965Z,16.60
2019-03-17T17:16:55.761Z,16.60
2019-03-17T17:21:40.619Z,16.30
2019-03-17T17:23:58.321Z,16.30
2019-03-17T18:27:28.690Z,14.90
2019-03-17T18:29:34.056Z,14.80
2019-03-17T18:31:39.433Z,14.70
2019-03-17T18:33:44.795Z,14.70
2019-03-17T18:35:50.172Z,14.60
2019-03-17T18:37:55.559Z,14.60
2019-03-17T18:40:01.000Z,14.60
2019-03-17T18:42:06.333Z,14.60
2019-03-17T18:44:11.736Z,14.60
2019-03-17T18:46:17.097Z,14.60
2019-03-17T18:48:22.425Z,14.60
2019-03-17T18:50:27.753Z,14.70
2019-03-17T18:52:33.111Z,14.70
2019-03-17T18:54:38.433Z,14.70
2019-03-17T18:56:43.757Z,14.70
2019-03-17T18:58:49.105Z,14.80
2019-03-17T19:00:54.434Z,14.60
2019-03-17T19:02:59.759Z,14.70
2019-03-17T19:05:07.341Z,14.60
2019-03-17T19:07:12.656Z,14.60
2019-03-17T19:09:19.053Z,14.60
2019-03-17T19:11:24.384Z,14.60
2019-03-17T19:13:30.828Z,14.50
2019-03-17T19:15:36.184Z,14.40
2019-03-17T19:17:41.561Z,14.30
2019-03-17T19:19:48.964Z,14.20
2019-03-17T19:21:54.289Z,14.10
2019-03-17T19:23:59.623Z,13.90
2019-03-17T19:26:04.949Z,13.70
2019-03-17T19:28:11.336Z,13.60
2019-03-17T19:30:18.779Z,13.70
2019-03-17T19:32:24.168Z,13.70
2019-03-17T19:34:29.486Z,13.60
2019-03-17T19:36:34.823Z,13.60
2019-03-17T19:38:40.139Z,13.60
2019-03-17T19:42:24.304Z,13.60
2019-03-17T19:44:29.652Z,13.70
2019-03-17T19:46:35.009Z,13.80
2019-03-17T19:48:40.371Z,13.80
2019-03-17T19:50:46.071Z,13.70
2019-03-17T19:52:51.372Z,13.60
2019-03-17T19:54:56.744Z,13.50
2019-03-17T19:57:02.102Z,13.40
2019-03-17T19:59:07.439Z,13.40
2019-03-17T20:01:12.824Z,13.50
2019-03-17T20:03:18.169Z,13.50
2019-03-17T20:05:23.520Z,13.60
2019-03-17T20:07:28.897Z,13.60
2019-03-17T20:09:34.237Z,13.60
2019-03-17T20:11:39.588Z,13.60
2019-03-17T20:13:44.951Z,13.60
2019-03-17T20:15:50.288Z,13.60
2019-03-17T20:17:55.633Z,13.60
2019-03-17T20:20:01.038Z,13.60
2019-03-17T20:22:06.432Z,13.40
2019-03-17T20:24:11.795Z,13.20
2019-03-17T20:26:18.751Z,13.10
2019-03-17T20:28:54.451Z,13.20
2019-03-17T20:32:45.995Z,13.30
2019-03-17T20:34:51.332Z,13.60
2019-03-17T20:38:07.009Z,13.50
2019-03-17T20:40:16.472Z,13.60
2019-03-17T20:42:22.800Z,13.60
2019-03-17T20:44:28.169Z,13.60
2019-03-17T20:46:33.542Z,13.60
2019-03-17T20:48:38.926Z,13.60
2019-03-17T20:50:44.312Z,13.60
2019-03-17T20:52:49.664Z,13.50
2019-03-17T20:54:55.051Z,13.40
2019-03-17T20:57:00.845Z,13.30
2019-03-17T20:59:06.390Z,13.30
2019-03-17T21:01:11.744Z,13.10
2019-03-17T21:03:17.132Z,12.90
2019-03-17T21:05:22.477Z,12.70
2019-03-17T21:07:27.838Z,12.50
2019-03-17T21:09:33.205Z,12.30
2019-03-17T21:11:38.544Z,12.20
2019-03-17T21:13:46.862Z,12.00
2019-03-17T21:15:51.105Z,12.00
2019-03-17T21:17:57.864Z,11.90
2019-03-17T21:20:05.922Z,11.80
2019-03-17T21:22:12.006Z,11.70
2019-03-17T21:24:19.740Z,11.50
2019-03-17T21:26:25.096Z,11.30
2019-03-17T21:28:30.740Z,11.20
2019-03-17T21:30:36.498Z,11.10
2019-03-17T21:32:41.911Z,11.10
2019-03-17T21:34:47.328Z,11.20
2019-03-17T21:36:52.665Z,11.40
2019-03-17T21:38:58.028Z,11.40
2019-03-17T21:41:07.298Z,11.40
2019-03-17T21:43:10.373Z,11.20
2019-03-17T21:45:15.708Z,10.90
2019-03-17T21:47:21.140Z,10.80
2019-03-17T21:49:26.482Z,10.50
2019-03-17T21:51:31.826Z,10.40
2019-03-17T21:53:37.298Z,10.30
2019-03-17T21:55:42.645Z,10.20
2019-03-17T21:57:47.990Z,10.10
2019-03-17T21:59:53.344Z,9.90
2019-03-17T22:01:58.675Z,9.90
2019-03-17T22:04:04.002Z,9.80
2019-03-17T22:06:09.356Z,9.70
2019-03-17T22:08:14.672Z,9.70
2019-03-17T22:10:21.234Z,9.60
2019-03-17T22:12:26.605Z,9.60
2019-03-17T22:14:33.002Z,9.50
2019-03-17T22:16:38.332Z,9.50
2019-03-17T22:18:43.684Z,9.30
2019-03-17T22:20:49.041Z,9.50
2019-03-17T22:22:54.448Z,9.40
2019-03-17T22:24:59.792Z,9.50
2019-03-17T22:27:05.137Z,9.40
2019-03-17T22:29:10.476Z,9.30
2019-03-17T22:31:15.840Z,9.40
2019-03-17T22:33:21.144Z,9.40
2019-03-17T22:35:26.481Z,9.30
2019-03-17T22:37:31.816Z,9.20
2019-03-17T22:39:37.148Z,9.10
2019-03-17T22:41:42.467Z,9.00
2019-03-17T22:43:47.812Z,9.00
2019-03-17T22:45:53.148Z,9.00
2019-03-17T22:47:58.500Z,9.00
2019-03-17T22:50:04.994Z,8.90
2019-03-17T22:52:10.333Z,8.90
2019-03-17T22:54:15.678Z,8.90
2019-03-17T22:56:22.088Z,8.80
2019-03-17T22:58:27.424Z,8.80
2019-03-17T23:00:34.466Z,8.80
2019-03-17T23:02:41.364Z,8.80
2019-03-17T23:04:46.712Z,8.80
2019-03-17T23:06:52.099Z,8.70
2019-03-17T23:08:57.435Z,8.70
2019-03-17T23:11:02.780Z,8.70
2019-03-17T23:13:08.166Z,8.70
2019-03-17T23:15:13.491Z,8.70
2019-03-17T23:17:18.821Z,8.70
2019-03-17T23:19:24.204Z,8.60
2019-03-17T23:21:29.571Z,8.60
2019-03-17T23:23:34.901Z,8.60
2019-03-17T23:25:40.313Z,8.50
2019-03-17T23:27:45.651Z,8.40
2019-03-17T23:29:50.999Z,8.40
2019-03-17T23:31:56.413Z,8.40
2019-03-17T23:34:01.725Z,8.40
2019-03-17T23:36:07.049Z,8.20
2019-03-17T23:38:12.426Z,8.20
2019-03-17T23:40:18.135Z,8.00
2019-03-17T23:42:23.505Z,7.80
2019-03-17T23:44:28.860Z,7.80
2019-03-17T23:46:34.206Z,7.60
2019-03-17T23:48:39.541Z,7.50
2019-03-17T23:50:44.890Z,7.40
2019-03-17T23:52:50.229Z,7.40
2019-03-17T23:54:55.552Z,7.30
2019-03-17T23:57:00.914Z,7.20
2019-03-17T23:59:06.241Z,7.10
